X  Zamknij Lotniskowe dane METAR        LECH Castellon-Costa Azahar
Temperatura
30°C Temperatura
21°C Punkt rosy
59% Wilgotność



Wiatr
20 KM/H
13 MPH
6 M/S
11 KTS



120°
ESE
Warunki bieżące

Mostly Sunny Przeważnie słonecznie
Ciśnienie 1014 (hPa) - 29.93 (inHg)
Widoczność 6 (mil) - 10 (km)
Lotnisko
Kod lotniska LECH

Położenie: Castellon-Costa Azahar
Odległość: 45 (km)

Metar:
METAR LECH 241500Z AUTO 12011KT CAVOK 30/21 Q1016

Czas: 24-07-2024 17:00 CEST